• Join FlightAware (Why Join?)
  • Login
  • US Flag 
Rudolph Flight #1: Arrived! 
04:41PM EST


 

Airport Tracker/Info


-or-


 

Live Flight TrackerFlight Track Log ✈ EJA831 ✈ 24-Jul-2013 ✈ KHPN - KAVL

Flight Track Log - Related Links

Times and Time Zones

All times are in EDT time to prevent confusion due to time zone crossing. See the EJA831 flight status page for this flight to view local times or setup timezone preferences in your user account.

Time Position Orientation Groundspeed Altitude Reporting Facility
EDT Latitude Longitude Course Direction KTS MPH feet Rate Location/Type
10:09AM 41.1000 -73.7667 252° West 178 205 2,500  Level New York TRACON
10:10AM 41.0833 -73.8333 252° West 204 235 4,800 2,700 Climbing New York TRACON
10:11AM 41.0667 -73.9167 255° West 231 266 8,000 2,460 Climbing New York TRACON
10:12AM 41.0500 -74.0000 255° West 262 302 10,000 960 Climbing New York TRACON
10:13AM 41.0167 -74.1000 246° West 311 358 10,000 1,560 Level New York TRACON
10:14AM 40.9108 -74.2361 244° Southwest 330 380 14,100 2,580 Climbing New York Center
10:15AM 40.9561 -74.2048 244° Southwest  Level Estimated
10:15AM 40.8661 -74.3328 239° Southwest 324 373 16,700  Level New York Center
10:16AM 40.8214 -74.4372 241° Southwest 318 366 17,000 120 Climbing New York Center
10:17AM 40.7719 -74.5469 239° Southwest 337 388 17,000 120 Level New York Center
10:18AM 40.7247 -74.6594 241° Southwest 349 402 17,300 1,320 Climbing New York Center
10:19AM 40.6756 -74.7606 237° Southwest 344 396 19,700 2,340 Climbing New York Center
10:20AM 40.6344 -74.8619 242° Southwest 339 390 22,100 2,460 Climbing New York Center
10:21AM 40.5894 -74.9606 239° Southwest 326 375 24,600 2,100 Climbing New York Center
10:22AM 40.5444 -75.0533 237° Southwest 318 366 26,300 1,380 Climbing New York Center
10:23AM 40.4933 -75.1403 232° Southwest 313 360 27,400 1,020 Climbing New York Center
10:24AM 40.4381 -75.2239 229° Southwest 313 360 28,400 780 Climbing New York Center
10:25AM 40.3847 -75.3078 230° Southwest 307 353 29,000 540 Climbing New York Center
10:26AM 40.3292 -75.3994 232° Southwest 312 359 29,600 600 Climbing New York Center
10:27AM 40.2781 -75.4803 230° Southwest 317 365 30,200 720 Climbing New York Center
10:28AM 40.2222 -75.5717 231° Southwest 322 371 31,100 1,020 Climbing New York Center
10:29AM 40.1700 -75.6714 236° Southwest 329 379 32,300 1,200 Climbing New York Center
10:30AM 40.1178 -75.7733 236° Southwest 340 391 33,500 1,200 Climbing New York Center
10:31AM 40.0678 -75.8758 238° Southwest 340 391 34,700 1,200 Climbing New York Center
10:32AM 40.0175 -75.9750 237° Southwest 340 391 35,900 1,200 Climbing New York Center
10:33AM 39.9550 -76.0678 229° Southwest 340 391 37,100 1,140 Climbing New York Center
10:34AM 39.8944 -76.1581 229° Southwest 345 397 38,300 1,140 Climbing New York Center
10:36AM 39.7656 -76.3367 227° Southwest 344 396 40,600 900 Climbing Washington Center
10:37AM 39.7003 -76.4247 226° Southwest 344 396 41,100 480 Climbing Washington Center
10:38AM 39.6331 -76.5183 227° Southwest 344 396 41,600 480 Climbing Washington Center
10:39AM 39.5697 -76.6011 225° Southwest 350 403 42,100 480 Climbing Washington Center
10:40AM 39.5022 -76.6969 228° Southwest 356 410 42,600 420 Climbing Washington Center
10:41AM 39.4369 -76.7872 227° Southwest 356 410 43,000 180 Climbing Washington Center
10:42AM 39.3669 -76.8856 227° Southwest 363 418 43,000  Level Washington Center
10:43AM 39.2950 -76.9833 226° Southwest 369 425 43,000  Level Washington Center
10:44AM 39.2231 -77.0811 226° Southwest 374 430 43,000  Level Washington Center
10:45AM 39.1531 -77.1761 226° Southwest 374 430 43,000  Level Washington Center
10:46AM 39.0808 -77.2736 226° Southwest 369 425 43,000  Level Washington Center
10:47AM 39.0128 -77.3656 226° Southwest 369 425 43,000  Level Washington Center
10:48AM 38.9428 -77.4572 226° Southwest 369 425 43,000  Level Washington Center
10:49AM 38.8725 -77.5542 227° Southwest 375 432 43,000  Level Washington Center
10:50AM 38.8000 -77.6428 224° Southwest 375 432 43,000  Level Washington Center
10:51AM 38.7253 -77.7497 228° Southwest 375 432 43,000  Level Washington Center
10:52AM 38.6547 -77.8433 226° Southwest 369 425 43,000  Level Washington Center
10:53AM 38.5944 -77.9425 232° Southwest 364 419 43,000  Level Washington Center
10:54AM 38.5361 -78.0442 234° Southwest 359 413 43,000  Level Washington Center
10:55AM 38.4756 -78.1456 233° Southwest 359 413 43,000  Level Washington Center
10:56AM 38.4150 -78.2494 233° Southwest 365 420 43,000  Level Washington Center
10:57AM 38.3542 -78.3533 233° Southwest 365 420 43,000  Level Washington Center
10:58AM 38.2914 -78.4567 232° Southwest 365 420 43,000  Level Washington Center
10:59AM 38.2431 -78.5500 237° Southwest 370 426 43,000  Level Washington Center
11:00AM 38.1931 -78.6325 232° Southwest 365 420 43,000  Level Washington Center
11:01AM 38.1103 -78.7692 232° Southwest 374 430 43,000  Level Washington Center
11:02AM 38.0469 -78.8747 233° Southwest 379 436 43,000  Level Washington Center
11:03AM 37.9836 -78.9800 233° Southwest 379 436 43,000  Level Washington Center
11:04AM 37.9203 -79.0822 232° Southwest 379 436 43,000  Level Washington Center
11:05AM 37.8692 -79.1825 237° Southwest 379 436 43,000  Level Washington Center
11:06AM 37.8139 -79.2931 238° Southwest 379 436 43,000  Level Washington Center
11:07AM 37.7581 -79.4083 239° Southwest 379 436 43,000 -360 Level Washington Center
11:08AM 37.6936 -79.5311 236° Southwest 389 448 42,400 -840 Descending Washington Center
11:09AM 37.6422 -79.6308 237° Southwest 384 442 41,400 -1,140 Descending Washington Center
11:10AM 37.5817 -79.7533 238° Southwest 379 436 40,200 -1,140 Descending Washington Center
11:11AM 37.5300 -79.8581 238° Southwest 385 443 39,200 -1,020 Descending Washington Center
11:12AM 37.4761 -79.9622 237° Southwest 385 443 38,200 -1,200 Descending Washington Center
11:13AM 37.4133 -80.0814 236° Southwest 375 432 36,900 -1,200 Descending Washington Center
11:14AM 37.3569 -80.1931 238° Southwest 381 438 35,800 -720 Descending Washington Center
11:17AM 37.1742 -80.5408 237° Southwest 396 456 34,000 -480 Descending Atlanta Center
11:18AM 37.1169 -80.6550 238° Southwest 388 447 34,000  Level Atlanta Center
11:19AM 37.0444 -80.7569 228° Southwest 393 452 34,000  Level Atlanta Center
11:20AM 36.9550 -80.8386 216° Southwest 404 465 34,000  Level Atlanta Center
11:21AM 36.8736 -80.9147 217° Southwest 404 465 34,000  Level Atlanta Center
11:22AM 36.7819 -81.0011 217° Southwest 414 476 34,000 -840 Level Atlanta Center
11:23AM 36.6942 -81.0822 217° Southwest 403 464 32,400 -1,800 Descending Atlanta Center
11:24AM 36.6003 -81.1711 217° Southwest 403 464 30,400 -1,800 Descending Atlanta Center
11:25AM 36.5128 -81.2567 218° Southwest 403 464 28,800 -1,620 Descending Atlanta Center
11:26AM 36.4247 -81.3372 216° Southwest 403 464 27,200 -1,620 Descending Atlanta Center
11:27AM 36.3369 -81.4200 217° Southwest 408 470 25,600 -1,620 Descending Atlanta Center
11:28AM 36.2489 -81.5028 217° Southwest 403 464 24,000 -840 Descending Atlanta Center
11:29AM 36.1631 -81.5825 217° Southwest 398 458 24,000 -540 Level Atlanta Center
11:30AM 36.0789 -81.6597 217° Southwest 398 458 23,000 -1,260 Descending Atlanta Center
11:31AM 35.9950 -81.7367 217° Southwest 388 447 21,500 -1,500 Descending Atlanta Center
11:32AM 35.9108 -81.8133 216° Southwest 382 440 20,100 -1,680 Descending Atlanta Center
11:33AM 35.8286 -81.8872 216° Southwest 377 434 18,200 -1,860 Descending Atlanta Center
11:34AM 35.7547 -81.9583 218° Southwest 360 414 16,400 -1,680 Descending Atlanta Center
11:35AM 35.6936 -82.0417 228° Southwest 360 414 14,900 -1,800 Descending Atlanta Center
11:36AM 35.6808 -82.1494 262° West 316 364 12,800 -1,860 Descending Atlanta Center
11:37AM 35.6675 -82.2442 260° West 316 364 11,200 -1,740 Descending Atlanta Center
11:38AM 35.6250 -82.3244 237° Southwest 304 350 9,400 -1,800 Descending Atlanta Center
11:39AM 35.5481 -82.3414 190° South 257 296 7,600 -1,740 Descending Atlanta Center
11:40AM 35.4731 -82.3633 193° South 268 308 6,000 -840 Descending Atlanta Center
11:41AM 35.4067 -82.3850 195° South 264 304 6,000 -300 Level Atlanta Center
11:42AM 35.3742 -82.4519 239° Southwest 223 257 5,400 -600 Descending Atlanta Center
11:44AM 35.4333 -82.5333 238° Southwest  Level FlightAware Approximate
11:51AM 35.4362 -82.5418 238° Southwest  Level Estimated
11:52AM 35.4362 -82.5418 238° Southwest  Level Estimated
11:53AM 35.4362 -82.5418 238° Southwest  Level Estimated
11:54AM 35.4362 -82.5418 238° Southwest  Level Estimated